Hillsboro, New York
Current Conditions -  °F | °C
As of 4:53 AM on Tuesday 21 Oct 2014 (Local Time) from KRME Reporting Station
Overcast Overcast  
Wind Chill: 44°   Ceiling: 5000
Heat Index: 46°   Visibility: 10mi
Dew Point: 44°   Wind: 5mph
Humidity: 93%   Direction: 110°ESE
Pressure: 29.87"   Gusts: NA
Location:  43.3736°N, 75.7544°W
Report Text: KRME 210853Z AUTO 11004KT 10SM OVC050 08/07 A2987 RMK AO2 RAE35 SLP115 P0000 60001 T00780067 56007
Loading
Personal Weather Stations






























Interactive Weather Map
Tropical Storm Tracking
New forecast layout! Learn more

10-Day Weather Forecast

Advertisements
Track Severe Weather on mobile